sensor_id;sensor_type;location;lat;lon;timestamp;P1;durP1;ratioP1;P2;durP2;ratioP2
15112;SDS011;7657;50.140;7.076;2023-03-24T00:02:13;3.30;;;2.30;;
15112;SDS011;7657;50.140;7.076;2023-03-24T00:04:40;3.15;;;2.00;;
15112;SDS011;7657;50.140;7.076;2023-03-24T00:07:07;3.53;;;2.17;;
15112;SDS011;7657;50.140;7.076;2023-03-24T00:09:40;2.22;;;2.05;;
15112;SDS011;7657;50.140;7.076;2023-03-24T00:12:08;1.92;;;1.75;;
15112;SDS011;7657;50.140;7.076;2023-03-24T00:14:36;1.92;;;1.80;;
15112;SDS011;7657;50.140;7.076;2023-03-24T00:17:03;3.15;;;2.13;;
15112;SDS011;7657;50.140;7.076;2023-03-24T00:19:30;2.08;;;1.95;;
15112;SDS011;7657;50.140;7.076;2023-03-24T00:22:02;2.22;;;1.90;;
15112;SDS011;7657;50.140;7.076;2023-03-24T00:24:29;1.92;;;1.73;;
15112;SDS011;7657;50.140;7.076;2023-03-24T00:26:58;3.22;;;2.08;;
15112;SDS011;7657;50.140;7.076;2023-03-24T00:29:25;2.72;;;1.90;;
15112;SDS011;7657;50.140;7.076;2023-03-24T00:31:52;3.58;;;2.35;;
15112;SDS011;7657;50.140;7.076;2023-03-24T00:34:20;2.90;;;2.30;;
15112;SDS011;7657;50.140;7.076;2023-03-24T00:36:47;2.47;;;2.03;;
15112;SDS011;7657;50.140;7.076;2023-03-24T00:39:15;2.30;;;2.10;;
15112;SDS011;7657;50.140;7.076;2023-03-24T00:41:42;2.60;;;1.88;;
15112;SDS011;7657;50.140;7.076;2023-03-24T00:44:11;2.22;;;2.03;;
15112;SDS011;7657;50.140;7.076;2023-03-24T00:46:42;2.30;;;1.98;;
15112;SDS011;7657;50.140;7.076;2023-03-24T00:49:10;3.28;;;1.90;;
15112;SDS011;7657;50.140;7.076;2023-03-24T00:51:40;2.85;;;1.98;;
15112;SDS011;7657;50.140;7.076;2023-03-24T00:54:09;2.30;;;2.10;;
15112;SDS011;7657;50.140;7.076;2023-03-24T00:56:38;2.70;;;2.17;;
15112;SDS011;7657;50.140;7.076;2023-03-24T00:59:07;2.67;;;1.92;;
15112;SDS011;7657;50.140;7.076;2023-03-24T01:01:36;2.97;;;2.67;;
15112;SDS011;7657;50.140;7.076;2023-03-24T01:04:05;2.90;;;2.58;;
15112;SDS011;7657;50.140;7.076;2023-03-24T01:06:33;4.32;;;2.50;;
15112;SDS011;7657;50.140;7.076;2023-03-24T01:09:01;3.17;;;2.88;;
15112;SDS011;7657;50.140;7.076;2023-03-24T01:11:32;3.88;;;3.38;;
15112;SDS011;7657;50.140;7.076;2023-03-24T01:14:01;4.32;;;3.70;;
15112;SDS011;7657;50.140;7.076;2023-03-24T01:16:29;4.18;;;3.60;;
15112;SDS011;7657;50.140;7.076;2023-03-24T01:18:57;4.70;;;4.03;;
15112;SDS011;7657;50.140;7.076;2023-03-24T01:21:24;5.45;;;4.63;;
15112;SDS011;7657;50.140;7.076;2023-03-24T01:23:52;5.38;;;4.82;;
15112;SDS011;7657;50.140;7.076;2023-03-24T01:26:19;7.82;;;5.45;;
15112;SDS011;7657;50.140;7.076;2023-03-24T01:28:46;6.43;;;5.25;;
15112;SDS011;7657;50.140;7.076;2023-03-24T01:31:13;6.43;;;5.72;;
15112;SDS011;7657;50.140;7.076;2023-03-24T01:33:40;6.18;;;5.57;;
15112;SDS011;7657;50.140;7.076;2023-03-24T01:36:09;6.80;;;5.97;;
15112;SDS011;7657;50.140;7.076;2023-03-24T01:38:36;8.60;;;6.20;;
15112;SDS011;7657;50.140;7.076;2023-03-24T01:41:04;6.90;;;5.97;;
15112;SDS011;7657;50.140;7.076;2023-03-24T01:43:33;7.40;;;5.97;;
15112;SDS011;7657;50.140;7.076;2023-03-24T01:46:05;8.80;;;6.00;;
15112;SDS011;7657;50.140;7.076;2023-03-24T01:48:39;7.82;;;6.10;;
15112;SDS011;7657;50.140;7.076;2023-03-24T01:51:11;6.45;;;5.65;;
15112;SDS011;7657;50.140;7.076;2023-03-24T01:53:42;6.57;;;5.57;;
15112;SDS011;7657;50.140;7.076;2023-03-24T01:56:11;7.88;;;5.47;;
15112;SDS011;7657;50.140;7.076;2023-03-24T01:58:40;6.90;;;5.25;;
15112;SDS011;7657;50.140;7.076;2023-03-24T02:01:12;7.72;;;5.60;;
15112;SDS011;7657;50.140;7.076;2023-03-24T02:03:41;8.05;;;5.95;;
15112;SDS011;7657;50.140;7.076;2023-03-24T02:06:10;7.78;;;5.60;;
15112;SDS011;7657;50.140;7.076;2023-03-24T02:08:39;8.82;;;5.30;;
15112;SDS011;7657;50.140;7.076;2023-03-24T02:11:09;6.05;;;4.95;;
15112;SDS011;7657;50.140;7.076;2023-03-24T02:13:37;6.68;;;5.28;;
15112;SDS011;7657;50.140;7.076;2023-03-24T02:16:13;7.18;;;5.43;;
15112;SDS011;7657;50.140;7.076;2023-03-24T02:18:49;7.97;;;5.55;;
15112;SDS011;7657;50.140;7.076;2023-03-24T02:21:41;7.07;;;5.65;;
15112;SDS011;7657;50.140;7.076;2023-03-24T02:27:58;9.25;;;6.28;;
15112;SDS011;7657;50.140;7.076;2023-03-24T02:40:01;8.68;;;6.35;;
15112;SDS011;7657;50.140;7.076;2023-03-24T02:42:37;7.93;;;6.22;;
15112;SDS011;7657;50.140;7.076;2023-03-24T02:45:15;8.07;;;5.95;;
15112;SDS011;7657;50.140;7.076;2023-03-24T02:47:53;8.00;;;5.93;;
15112;SDS011;7657;50.140;7.076;2023-03-24T02:50:36;9.30;;;6.10;;
15112;SDS011;7657;50.140;7.076;2023-03-24T02:53:09;7.65;;;5.57;;
15112;SDS011;7657;50.140;7.076;2023-03-24T02:55:42;9.30;;;6.85;;
15112;SDS011;7657;50.140;7.076;2023-03-24T02:58:17;9.35;;;6.30;;
15112;SDS011;7657;50.140;7.076;2023-03-24T03:00:49;8.13;;;6.75;;
15112;SDS011;7657;50.140;7.076;2023-03-24T03:03:24;9.27;;;6.97;;
15112;SDS011;7657;50.140;7.076;2023-03-24T03:05:59;8.52;;;6.20;;
15112;SDS011;7657;50.140;7.076;2023-03-24T03:08:31;10.35;;;7.03;;
15112;SDS011;7657;50.140;7.076;2023-03-24T03:11:02;8.68;;;6.00;;
15112;SDS011;7657;50.140;7.076;2023-03-24T03:13:33;8.18;;;6.60;;
15112;SDS011;7657;50.140;7.076;2023-03-24T03:16:04;9.18;;;6.35;;
15112;SDS011;7657;50.140;7.076;2023-03-24T03:18:37;9.98;;;7.03;;
15112;SDS011;7657;50.140;7.076;2023-03-24T03:21:10;10.20;;;7.40;;
15112;SDS011;7657;50.140;7.076;2023-03-24T03:23:41;8.90;;;6.93;;
15112;SDS011;7657;50.140;7.076;2023-03-24T03:26:14;9.32;;;6.95;;
15112;SDS011;7657;50.140;7.076;2023-03-24T03:28:45;9.32;;;7.38;;
15112;SDS011;7657;50.140;7.076;2023-03-24T03:31:16;10.02;;;7.30;;
15112;SDS011;7657;50.140;7.076;2023-03-24T03:33:49;8.23;;;6.82;;
15112;SDS011;7657;50.140;7.076;2023-03-24T03:36:23;8.65;;;6.85;;
15112;SDS011;7657;50.140;7.076;2023-03-24T03:38:55;8.95;;;7.32;;
15112;SDS011;7657;50.140;7.076;2023-03-24T03:41:27;9.75;;;7.57;;
15112;SDS011;7657;50.140;7.076;2023-03-24T03:43:54;9.45;;;6.95;;
15112;SDS011;7657;50.140;7.076;2023-03-24T03:46:21;9.88;;;6.78;;
15112;SDS011;7657;50.140;7.076;2023-03-24T03:48:49;10.90;;;7.60;;
15112;SDS011;7657;50.140;7.076;2023-03-24T03:51:16;9.15;;;7.03;;
15112;SDS011;7657;50.140;7.076;2023-03-24T03:53:44;8.18;;;6.68;;
15112;SDS011;7657;50.140;7.076;2023-03-24T03:56:14;8.93;;;7.00;;
15112;SDS011;7657;50.140;7.076;2023-03-24T03:58:46;10.00;;;6.90;;
15112;SDS011;7657;50.140;7.076;2023-03-24T04:01:15;10.43;;;7.10;;
15112;SDS011;7657;50.140;7.076;2023-03-24T04:03:52;9.95;;;6.72;;
15112;SDS011;7657;50.140;7.076;2023-03-24T04:06:39;8.93;;;6.70;;
15112;SDS011;7657;50.140;7.076;2023-03-24T04:09:15;8.40;;;6.57;;
15112;SDS011;7657;50.140;7.076;2023-03-24T04:12:07;6.80;;;5.78;;
15112;SDS011;7657;50.140;7.076;2023-03-24T04:14:57;8.50;;;6.20;;
15112;SDS011;7657;50.140;7.076;2023-03-24T04:17:58;7.22;;;6.10;;
15112;SDS011;7657;50.140;7.076;2023-03-24T04:20:42;7.55;;;5.30;;
15112;SDS011;7657;50.140;7.076;2023-03-24T04:23:13;6.30;;;5.07;;
15112;SDS011;7657;50.140;7.076;2023-03-24T04:25:52;7.75;;;5.32;;
15112;SDS011;7657;50.140;7.076;2023-03-24T04:28:29;6.43;;;5.07;;
15112;SDS011;7657;50.140;7.076;2023-03-24T04:31:03;7.22;;;5.47;;
15112;SDS011;7657;50.140;7.076;2023-03-24T04:33:40;4.93;;;4.43;;
15112;SDS011;7657;50.140;7.076;2023-03-24T04:36:15;7.38;;;4.88;;
15112;SDS011;7657;50.140;7.076;2023-03-24T04:38:51;5.22;;;4.22;;
15112;SDS011;7657;50.140;7.076;2023-03-24T04:41:21;5.82;;;4.30;;
15112;SDS011;7657;50.140;7.076;2023-03-24T04:43:51;5.47;;;4.25;;
15112;SDS011;7657;50.140;7.076;2023-03-24T04:46:22;6.38;;;4.38;;
15112;SDS011;7657;50.140;7.076;2023-03-24T04:48:49;4.10;;;3.70;;
15112;SDS011;7657;50.140;7.076;2023-03-24T04:51:18;3.83;;;3.42;;
15112;SDS011;7657;50.140;7.076;2023-03-24T04:53:46;4.93;;;3.72;;
15112;SDS011;7657;50.140;7.076;2023-03-24T04:56:30;4.32;;;3.63;;
15112;SDS011;7657;50.140;7.076;2023-03-24T04:59:04;5.45;;;3.67;;
15112;SDS011;7657;50.140;7.076;2023-03-24T05:01:33;3.80;;;3.35;;
15112;SDS011;7657;50.140;7.076;2023-03-24T05:04:01;4.82;;;3.42;;
15112;SDS011;7657;50.140;7.076;2023-03-24T05:06:29;3.42;;;3.13;;
15112;SDS011;7657;50.140;7.076;2023-03-24T05:08:56;4.30;;;3.30;;
15112;SDS011;7657;50.140;7.076;2023-03-24T05:11:24;4.10;;;3.55;;
15112;SDS011;7657;50.140;7.076;2023-03-24T05:13:51;4.43;;;3.08;;
15112;SDS011;7657;50.140;7.076;2023-03-24T05:16:19;5.05;;;3.03;;
15112;SDS011;7657;50.140;7.076;2023-03-24T05:18:47;3.40;;;3.10;;
15112;SDS011;7657;50.140;7.076;2023-03-24T05:21:14;3.20;;;2.85;;
15112;SDS011;7657;50.140;7.076;2023-03-24T05:23:41;4.05;;;2.92;;
15112;SDS011;7657;50.140;7.076;2023-03-24T05:26:08;5.28;;;3.17;;
15112;SDS011;7657;50.140;7.076;2023-03-24T05:28:35;3.75;;;2.60;;
15112;SDS011;7657;50.140;7.076;2023-03-24T05:31:02;4.25;;;2.80;;
15112;SDS011;7657;50.140;7.076;2023-03-24T05:33:29;4.70;;;2.90;;
15112;SDS011;7657;50.140;7.076;2023-03-24T05:35:57;5.03;;;2.63;;
15112;SDS011;7657;50.140;7.076;2023-03-24T05:38:24;4.15;;;2.70;;
15112;SDS011;7657;50.140;7.076;2023-03-24T05:40:54;2.67;;;2.47;;
15112;SDS011;7657;50.140;7.076;2023-03-24T05:43:21;5.03;;;2.92;;
15112;SDS011;7657;50.140;7.076;2023-03-24T05:45:48;2.78;;;2.47;;
15112;SDS011;7657;50.140;7.076;2023-03-24T05:48:15;3.13;;;2.47;;
15112;SDS011;7657;50.140;7.076;2023-03-24T05:50:42;3.33;;;2.50;;
15112;SDS011;7657;50.140;7.076;2023-03-24T05:53:10;3.00;;;2.53;;
15112;SDS011;7657;50.140;7.076;2023-03-24T05:55:37;3.17;;;2.30;;
15112;SDS011;7657;50.140;7.076;2023-03-24T05:58:05;3.72;;;2.42;;
15112;SDS011;7657;50.140;7.076;2023-03-24T06:00:32;3.10;;;2.40;;
15112;SDS011;7657;50.140;7.076;2023-03-24T06:02:59;2.33;;;2.13;;
15112;SDS011;7657;50.140;7.076;2023-03-24T06:05:26;2.20;;;2.00;;
15112;SDS011;7657;50.140;7.076;2023-03-24T06:07:53;2.50;;;2.30;;
15112;SDS011;7657;50.140;7.076;2023-03-24T06:10:24;2.88;;;2.28;;
15112;SDS011;7657;50.140;7.076;2023-03-24T06:12:52;4.18;;;2.10;;
15112;SDS011;7657;50.140;7.076;2023-03-24T06:15:20;2.05;;;1.88;;
15112;SDS011;7657;50.140;7.076;2023-03-24T06:17:48;2.35;;;2.15;;
15112;SDS011;7657;50.140;7.076;2023-03-24T06:20:18;3.00;;;1.92;;
15112;SDS011;7657;50.140;7.076;2023-03-24T06:22:46;3.38;;;2.25;;
15112;SDS011;7657;50.140;7.076;2023-03-24T06:25:14;2.83;;;2.38;;
15112;SDS011;7657;50.140;7.076;2023-03-24T06:27:45;3.30;;;2.13;;
15112;SDS011;7657;50.140;7.076;2023-03-24T06:30:13;2.45;;;2.00;;
15112;SDS011;7657;50.140;7.076;2023-03-24T06:32:41;2.38;;;2.17;;
15112;SDS011;7657;50.140;7.076;2023-03-24T06:35:10;2.30;;;1.88;;
15112;SDS011;7657;50.140;7.076;2023-03-24T06:37:38;2.03;;;1.83;;
15112;SDS011;7657;50.140;7.076;2023-03-24T06:40:05;2.20;;;2.00;;
15112;SDS011;7657;50.140;7.076;2023-03-24T06:42:35;2.75;;;2.10;;
15112;SDS011;7657;50.140;7.076;2023-03-24T06:45:04;4.10;;;1.83;;
15112;SDS011;7657;50.140;7.076;2023-03-24T06:47:32;3.63;;;2.60;;
15112;SDS011;7657;50.140;7.076;2023-03-24T06:49:59;2.33;;;2.13;;
15112;SDS011;7657;50.140;7.076;2023-03-24T06:52:25;2.20;;;2.00;;
15112;SDS011;7657;50.140;7.076;2023-03-24T06:54:53;2.78;;;2.58;;
15112;SDS011;7657;50.140;7.076;2023-03-24T06:57:20;3.78;;;2.33;;
15112;SDS011;7657;50.140;7.076;2023-03-24T06:59:46;2.28;;;2.08;;
15112;SDS011;7657;50.140;7.076;2023-03-24T07:02:15;2.55;;;2.28;;
15112;SDS011;7657;50.140;7.076;2023-03-24T07:04:42;3.03;;;1.92;;
15112;SDS011;7657;50.140;7.076;2023-03-24T07:07:09;3.47;;;2.17;;
15112;SDS011;7657;50.140;7.076;2023-03-24T07:09:37;1.75;;;1.60;;
15112;SDS011;7657;50.140;7.076;2023-03-24T07:12:04;1.90;;;1.75;;
15112;SDS011;7657;50.140;7.076;2023-03-24T07:14:32;1.60;;;1.50;;
15112;SDS011;7657;50.140;7.076;2023-03-24T07:16:59;3.53;;;1.98;;
15112;SDS011;7657;50.140;7.076;2023-03-24T07:19:27;1.80;;;1.67;;
15112;SDS011;7657;50.140;7.076;2023-03-24T07:21:56;2.92;;;1.77;;
15112;SDS011;7657;50.140;7.076;2023-03-24T07:24:23;1.83;;;1.58;;
15112;SDS011;7657;50.140;7.076;2023-03-24T07:26:50;2.78;;;1.70;;
15112;SDS011;7657;50.140;7.076;2023-03-24T07:29:17;2.33;;;1.60;;
15112;SDS011;7657;50.140;7.076;2023-03-24T07:31:43;1.90;;;1.40;;
15112;SDS011;7657;50.140;7.076;2023-03-24T07:34:12;1.13;;;0.77;;
15112;SDS011;7657;50.140;7.076;2023-03-24T07:36:41;2.92;;;0.88;;
15112;SDS011;7657;50.140;7.076;2023-03-24T07:39:08;3.72;;;1.05;;
15112;SDS011;7657;50.140;7.076;2023-03-24T07:41:35;4.13;;;1.10;;
15112;SDS011;7657;50.140;7.076;2023-03-24T07:44:01;3.25;;;1.08;;
15112;SDS011;7657;50.140;7.076;2023-03-24T07:46:28;2.22;;;0.70;;
15112;SDS011;7657;50.140;7.076;2023-03-24T07:48:55;2.80;;;1.27;;
15112;SDS011;7657;50.140;7.076;2023-03-24T07:51:22;1.95;;;0.80;;
15112;SDS011;7657;50.140;7.076;2023-03-24T07:53:51;3.47;;;1.15;;
15112;SDS011;7657;50.140;7.076;2023-03-24T07:56:17;1.15;;;0.90;;
15112;SDS011;7657;50.140;7.076;2023-03-24T07:58:44;3.63;;;1.10;;
15112;SDS011;7657;50.140;7.076;2023-03-24T08:01:11;2.67;;;0.90;;
15112;SDS011;7657;50.140;7.076;2023-03-24T08:03:38;3.63;;;0.82;;
15112;SDS011;7657;50.140;7.076;2023-03-24T08:06:06;2.63;;;1.20;;
15112;SDS011;7657;50.140;7.076;2023-03-24T08:08:34;3.55;;;1.10;;
15112;SDS011;7657;50.140;7.076;2023-03-24T08:11:03;2.40;;;0.63;;
15112;SDS011;7657;50.140;7.076;2023-03-24T08:13:30;0.98;;;0.85;;
15112;SDS011;7657;50.140;7.076;2023-03-24T08:15:57;3.58;;;0.93;;
15112;SDS011;7657;50.140;7.076;2023-03-24T08:18:24;3.03;;;1.05;;
15112;SDS011;7657;50.140;7.076;2023-03-24T08:20:53;4.85;;;1.00;;
15112;SDS011;7657;50.140;7.076;2023-03-24T08:23:23;2.83;;;0.80;;
15112;SDS011;7657;50.140;7.076;2023-03-24T08:25:51;5.32;;;0.80;;
15112;SDS011;7657;50.140;7.076;2023-03-24T08:28:19;3.75;;;1.10;;
15112;SDS011;7657;50.140;7.076;2023-03-24T08:30:46;2.42;;;0.95;;
15112;SDS011;7657;50.140;7.076;2023-03-24T08:33:13;4.28;;;1.10;;
15112;SDS011;7657;50.140;7.076;2023-03-24T08:35:41;2.40;;;2.20;;
15112;SDS011;7657;50.140;7.076;2023-03-24T08:38:10;3.10;;;1.05;;
15112;SDS011;7657;50.140;7.076;2023-03-24T08:40:38;4.45;;;1.67;;
15112;SDS011;7657;50.140;7.076;2023-03-24T08:43:07;2.55;;;1.35;;
15112;SDS011;7657;50.140;7.076;2023-03-24T08:45:39;2.83;;;1.10;;
15112;SDS011;7657;50.140;7.076;2023-03-24T08:48:07;4.22;;;2.08;;
15112;SDS011;7657;50.140;7.076;2023-03-24T08:50:35;3.53;;;1.52;;
15112;SDS011;7657;50.140;7.076;2023-03-24T08:53:05;2.97;;;1.10;;
15112;SDS011;7657;50.140;7.076;2023-03-24T08:55:32;2.75;;;0.95;;
15112;SDS011;7657;50.140;7.076;2023-03-24T08:58:01;2.08;;;1.33;;
15112;SDS011;7657;50.140;7.076;2023-03-24T09:00:28;5.90;;;2.33;;
15112;SDS011;7657;50.140;7.076;2023-03-24T09:02:56;2.80;;;0.98;;
15112;SDS011;7657;50.140;7.076;2023-03-24T09:05:25;2.85;;;1.08;;
15112;SDS011;7657;50.140;7.076;2023-03-24T09:07:52;4.70;;;1.00;;
15112;SDS011;7657;50.140;7.076;2023-03-24T09:10:19;3.78;;;1.70;;
15112;SDS011;7657;50.140;7.076;2023-03-24T09:12:47;3.88;;;0.98;;
15112;SDS011;7657;50.140;7.076;2023-03-24T09:15:15;3.05;;;1.10;;
15112;SDS011;7657;50.140;7.076;2023-03-24T09:17:42;3.50;;;1.00;;
15112;SDS011;7657;50.140;7.076;2023-03-24T09:20:11;2.92;;;0.98;;
15112;SDS011;7657;50.140;7.076;2023-03-24T09:22:40;5.05;;;2.58;;
15112;SDS011;7657;50.140;7.076;2023-03-24T09:25:09;3.03;;;0.98;;
15112;SDS011;7657;50.140;7.076;2023-03-24T09:27:37;9.18;;;5.18;;
15112;SDS011;7657;50.140;7.076;2023-03-24T09:30:05;7.30;;;3.30;;
15112;SDS011;7657;50.140;7.076;2023-03-24T09:32:33;5.68;;;3.42;;
15112;SDS011;7657;50.140;7.076;2023-03-24T09:35:00;4.97;;;2.47;;
15112;SDS011;7657;50.140;7.076;2023-03-24T09:37:29;3.35;;;1.10;;
15112;SDS011;7657;50.140;7.076;2023-03-24T09:39:57;4.75;;;1.70;;
15112;SDS011;7657;50.140;7.076;2023-03-24T09:42:26;1.95;;;1.75;;
15112;SDS011;7657;50.140;7.076;2023-03-24T09:44:56;2.30;;;0.85;;
15112;SDS011;7657;50.140;7.076;2023-03-24T09:47:26;7.43;;;3.35;;
15112;SDS011;7657;50.140;7.076;2023-03-24T09:49:56;4.55;;;1.98;;
15112;SDS011;7657;50.140;7.076;2023-03-24T09:52:28;2.75;;;1.50;;
15112;SDS011;7657;50.140;7.076;2023-03-24T09:55:00;3.53;;;2.33;;
15112;SDS011;7657;50.140;7.076;2023-03-24T09:57:28;4.35;;;1.50;;
15112;SDS011;7657;50.140;7.076;2023-03-24T10:00:01;3.75;;;1.20;;
15112;SDS011;7657;50.140;7.076;2023-03-24T10:02:34;8.52;;;3.58;;
15112;SDS011;7657;50.140;7.076;2023-03-24T10:05:05;5.25;;;2.40;;
15112;SDS011;7657;50.140;7.076;2023-03-24T10:07:41;3.72;;;1.80;;
15112;SDS011;7657;50.140;7.076;2023-03-24T10:10:15;6.85;;;4.00;;
15112;SDS011;7657;50.140;7.076;2023-03-24T10:12:48;6.15;;;2.53;;
15112;SDS011;7657;50.140;7.076;2023-03-24T10:15:17;4.40;;;1.60;;
15112;SDS011;7657;50.140;7.076;2023-03-24T10:17:53;5.93;;;1.55;;
15112;SDS011;7657;50.140;7.076;2023-03-24T10:20:25;3.53;;;1.90;;
15112;SDS011;7657;50.140;7.076;2023-03-24T10:23:00;8.88;;;4.90;;
15112;SDS011;7657;50.140;7.076;2023-03-24T10:25:44;13.43;;;8.95;;
15112;SDS011;7657;50.140;7.076;2023-03-24T10:28:18;8.13;;;5.70;;
15112;SDS011;7657;50.140;7.076;2023-03-24T10:30:46;6.35;;;4.38;;
15112;SDS011;7657;50.140;7.076;2023-03-24T10:33:15;3.67;;;1.98;;
15112;SDS011;7657;50.140;7.076;2023-03-24T10:35:45;3.97;;;2.13;;
15112;SDS011;7657;50.140;7.076;2023-03-24T10:38:18;3.78;;;2.17;;
15112;SDS011;7657;50.140;7.076;2023-03-24T10:40:47;6.93;;;3.42;;
15112;SDS011;7657;50.140;7.076;2023-03-24T10:43:15;4.05;;;1.42;;
15112;SDS011;7657;50.140;7.076;2023-03-24T10:45:44;2.88;;;1.08;;
15112;SDS011;7657;50.140;7.076;2023-03-24T10:48:14;2.85;;;1.35;;
15112;SDS011;7657;50.140;7.076;2023-03-24T10:50:59;5.47;;;1.58;;
15112;SDS011;7657;50.140;7.076;2023-03-24T10:53:28;3.25;;;2.45;;
15112;SDS011;7657;50.140;7.076;2023-03-24T10:55:55;3.47;;;1.13;;
15112;SDS011;7657;50.140;7.076;2023-03-24T10:58:26;5.03;;;2.13;;
15112;SDS011;7657;50.140;7.076;2023-03-24T11:00:55;3.47;;;1.35;;
15112;SDS011;7657;50.140;7.076;2023-03-24T11:03:25;3.80;;;2.03;;
15112;SDS011;7657;50.140;7.076;2023-03-24T11:05:59;4.28;;;1.75;;
15112;SDS011;7657;50.140;7.076;2023-03-24T11:08:30;6.88;;;4.22;;
15112;SDS011;7657;50.140;7.076;2023-03-24T11:10:59;5.38;;;2.20;;
15112;SDS011;7657;50.140;7.076;2023-03-24T11:13:31;3.42;;;1.65;;
15112;SDS011;7657;50.140;7.076;2023-03-24T11:16:09;5.70;;;1.80;;
15112;SDS011;7657;50.140;7.076;2023-03-24T11:18:40;3.22;;;1.92;;
15112;SDS011;7657;50.140;7.076;2023-03-24T11:21:20;4.28;;;1.60;;
15112;SDS011;7657;50.140;7.076;2023-03-24T11:23:49;4.07;;;1.70;;
15112;SDS011;7657;50.140;7.076;2023-03-24T11:26:17;2.58;;;1.15;;
15112;SDS011;7657;50.140;7.076;2023-03-24T11:28:46;4.88;;;1.85;;
15112;SDS011;7657;50.140;7.076;2023-03-24T11:31:20;5.13;;;1.75;;
15112;SDS011;7657;50.140;7.076;2023-03-24T11:33:49;3.33;;;1.77;;
15112;SDS011;7657;50.140;7.076;2023-03-24T11:39:17;3.13;;;1.48;;
15112;SDS011;7657;50.140;7.076;2023-03-24T11:41:58;4.93;;;1.85;;
15112;SDS011;7657;50.140;7.076;2023-03-24T11:44:31;2.70;;;1.52;;
15112;SDS011;7657;50.140;7.076;2023-03-24T11:47:09;4.10;;;1.45;;
15112;SDS011;7657;50.140;7.076;2023-03-24T11:49:39;3.30;;;1.77;;
15112;SDS011;7657;50.140;7.076;2023-03-24T11:52:12;3.67;;;1.33;;
15112;SDS011;7657;50.140;7.076;2023-03-24T11:54:47;3.47;;;1.38;;
15112;SDS011;7657;50.140;7.076;2023-03-24T11:57:15;2.58;;;1.08;;
15112;SDS011;7657;50.140;7.076;2023-03-24T11:59:50;3.47;;;1.50;;
15112;SDS011;7657;50.140;7.076;2023-03-24T12:02:23;2.92;;;0.93;;
15112;SDS011;7657;50.140;7.076;2023-03-24T12:05:09;3.47;;;1.30;;
15112;SDS011;7657;50.140;7.076;2023-03-24T12:07:59;2.55;;;1.13;;
15112;SDS011;7657;50.140;7.076;2023-03-24T12:10:49;3.40;;;1.55;;
15112;SDS011;7657;50.140;7.076;2023-03-24T12:13:29;3.35;;;1.50;;
15112;SDS011;7657;50.140;7.076;2023-03-24T12:16:00;3.25;;;1.42;;
15112;SDS011;7657;50.140;7.076;2023-03-24T12:18:38;5.20;;;1.25;;
15112;SDS011;7657;50.140;7.076;2023-03-24T12:21:34;7.50;;;2.17;;
15112;SDS011;7657;50.140;7.076;2023-03-24T12:24:10;4.93;;;1.38;;
15112;SDS011;7657;50.140;7.076;2023-03-24T12:26:52;2.20;;;1.05;;
15112;SDS011;7657;50.140;7.076;2023-03-24T12:29:41;5.47;;;1.20;;
15112;SDS011;7657;50.140;7.076;2023-03-24T12:32:24;4.60;;;1.42;;
15112;SDS011;7657;50.140;7.076;2023-03-24T12:35:17;7.13;;;1.70;;
15112;SDS011;7657;50.140;7.076;2023-03-24T12:38:02;3.17;;;1.30;;
15112;SDS011;7657;50.140;7.076;2023-03-24T12:40:51;3.65;;;1.58;;
15112;SDS011;7657;50.140;7.076;2023-03-24T12:43:48;5.80;;;1.40;;
15112;SDS011;7657;50.140;7.076;2023-03-24T12:46:24;3.13;;;1.08;;
15112;SDS011;7657;50.140;7.076;2023-03-24T12:49:08;3.47;;;1.20;;
15112;SDS011;7657;50.140;7.076;2023-03-24T12:51:49;4.50;;;1.20;;
15112;SDS011;7657;50.140;7.076;2023-03-24T12:54:24;3.33;;;1.45;;
15112;SDS011;7657;50.140;7.076;2023-03-24T12:57:02;2.53;;;1.50;;
15112;SDS011;7657;50.140;7.076;2023-03-24T12:59:34;5.53;;;1.30;;
15112;SDS011;7657;50.140;7.076;2023-03-24T13:02:08;5.28;;;1.52;;
15112;SDS011;7657;50.140;7.076;2023-03-24T13:04:45;2.83;;;1.00;;
15112;SDS011;7657;50.140;7.076;2023-03-24T13:07:15;5.68;;;1.33;;
15112;SDS011;7657;50.140;7.076;2023-03-24T13:09:45;4.28;;;1.25;;
15112;SDS011;7657;50.140;7.076;2023-03-24T13:12:18;3.03;;;1.00;;
15112;SDS011;7657;50.140;7.076;2023-03-24T13:14:50;4.32;;;1.23;;
15112;SDS011;7657;50.140;7.076;2023-03-24T13:17:24;4.60;;;1.30;;
15112;SDS011;7657;50.140;7.076;2023-03-24T13:19:54;5.70;;;1.40;;
15112;SDS011;7657;50.140;7.076;2023-03-24T13:22:23;2.08;;;1.15;;
15112;SDS011;7657;50.140;7.076;2023-03-24T13:24:52;4.18;;;1.42;;
15112;SDS011;7657;50.140;7.076;2023-03-24T13:27:21;5.20;;;1.20;;
15112;SDS011;7657;50.140;7.076;2023-03-24T13:30:01;5.07;;;1.40;;
15112;SDS011;7657;50.140;7.076;2023-03-24T13:32:40;2.55;;;1.00;;
15112;SDS011;7657;50.140;7.076;2023-03-24T13:35:13;3.88;;;1.30;;
15112;SDS011;7657;50.140;7.076;2023-03-24T13:37:46;2.38;;;0.88;;
15112;SDS011;7657;50.140;7.076;2023-03-24T13:40:20;3.25;;;1.15;;
15112;SDS011;7657;50.140;7.076;2023-03-24T13:42:51;4.88;;;1.48;;
15112;SDS011;7657;50.140;7.076;2023-03-24T13:45:23;2.35;;;1.10;;
15112;SDS011;7657;50.140;7.076;2023-03-24T13:48:14;2.75;;;1.25;;
15112;SDS011;7657;50.140;7.076;2023-03-24T13:50:53;3.85;;;1.10;;
15112;SDS011;7657;50.140;7.076;2023-03-24T13:53:27;1.58;;;1.02;;
15112;SDS011;7657;50.140;7.076;2023-03-24T13:55:58;2.35;;;1.15;;
15112;SDS011;7657;50.140;7.076;2023-03-24T13:58:27;2.20;;;1.10;;
15112;SDS011;7657;50.140;7.076;2023-03-24T14:01:16;3.20;;;1.23;;
15112;SDS011;7657;50.140;7.076;2023-03-24T14:06:51;2.88;;;1.13;;
15112;SDS011;7657;50.140;7.076;2023-03-24T14:09:19;7.57;;;1.40;;
15112;SDS011;7657;50.140;7.076;2023-03-24T14:11:48;1.58;;;0.93;;
15112;SDS011;7657;50.140;7.076;2023-03-24T14:14:32;5.28;;;1.10;;
15112;SDS011;7657;50.140;7.076;2023-03-24T14:17:11;3.42;;;1.02;;
15112;SDS011;7657;50.140;7.076;2023-03-24T14:19:39;2.10;;;1.20;;
15112;SDS011;7657;50.140;7.076;2023-03-24T14:22:08;4.95;;;1.10;;
15112;SDS011;7657;50.140;7.076;2023-03-24T14:24:38;2.20;;;1.00;;
15112;SDS011;7657;50.140;7.076;2023-03-24T14:27:20;3.15;;;1.60;;
15112;SDS011;7657;50.140;7.076;2023-03-24T14:29:54;4.05;;;1.17;;
15112;SDS011;7657;50.140;7.076;2023-03-24T14:32:27;5.05;;;2.53;;
15112;SDS011;7657;50.140;7.076;2023-03-24T14:34:55;3.67;;;1.80;;
15112;SDS011;7657;50.140;7.076;2023-03-24T14:37:23;1.83;;;1.00;;
15112;SDS011;7657;50.140;7.076;2023-03-24T14:39:51;2.85;;;1.15;;
15112;SDS011;7657;50.140;7.076;2023-03-24T14:45:37;4.75;;;1.75;;
15112;SDS011;7657;50.140;7.076;2023-03-24T14:48:34;4.97;;;1.67;;
15112;SDS011;7657;50.140;7.076;2023-03-24T14:51:07;4.82;;;1.48;;
15112;SDS011;7657;50.140;7.076;2023-03-24T14:53:44;6.65;;;1.60;;
15112;SDS011;7657;50.140;7.076;2023-03-24T14:56:12;7.35;;;1.65;;
15112;SDS011;7657;50.140;7.076;2023-03-24T14:58:41;3.53;;;1.15;;
15112;SDS011;7657;50.140;7.076;2023-03-24T15:01:10;7.20;;;2.13;;
15112;SDS011;7657;50.140;7.076;2023-03-24T15:03:40;4.78;;;1.40;;
15112;SDS011;7657;50.140;7.076;2023-03-24T15:06:13;3.80;;;1.42;;
15112;SDS011;7657;50.140;7.076;2023-03-24T15:08:48;4.50;;;1.35;;
15112;SDS011;7657;50.140;7.076;2023-03-24T15:11:17;4.13;;;1.52;;
15112;SDS011;7657;50.140;7.076;2023-03-24T15:13:47;4.88;;;1.35;;
15112;SDS011;7657;50.140;7.076;2023-03-24T15:16:17;4.25;;;1.27;;
15112;SDS011;7657;50.140;7.076;2023-03-24T15:18:48;5.00;;;2.00;;
15112;SDS011;7657;50.140;7.076;2023-03-24T15:21:21;4.65;;;1.58;;
15112;SDS011;7657;50.140;7.076;2023-03-24T15:23:50;4.07;;;1.00;;
15112;SDS011;7657;50.140;7.076;2023-03-24T15:26:18;4.03;;;1.63;;
15112;SDS011;7657;50.140;7.076;2023-03-24T15:28:52;4.07;;;1.35;;
15112;SDS011;7657;50.140;7.076;2023-03-24T15:31:20;3.50;;;1.20;;
15112;SDS011;7657;50.140;7.076;2023-03-24T15:33:50;2.40;;;0.90;;
15112;SDS011;7657;50.140;7.076;2023-03-24T15:36:19;4.15;;;1.70;;
15112;SDS011;7657;50.140;7.076;2023-03-24T15:38:48;36.05;;;22.85;;
15112;SDS011;7657;50.140;7.076;2023-03-24T15:41:17;4.63;;;1.88;;
15112;SDS011;7657;50.140;7.076;2023-03-24T15:43:49;2.75;;;1.35;;
15112;SDS011;7657;50.140;7.076;2023-03-24T15:46:27;5.00;;;1.98;;
15112;SDS011;7657;50.140;7.076;2023-03-24T15:48:58;7.13;;;3.33;;